sensor_id;sensor_type;location;lat;lon;timestamp;P1;durP1;ratioP1;P2;durP2;ratioP2
67762;SDS011;54566;52.022;5.582;2022-11-15T00:01:34;61.80;;;21.08;;
67762;SDS011;54566;52.022;5.582;2022-11-15T00:04:02;56.25;;;20.63;;
67762;SDS011;54566;52.022;5.582;2022-11-15T00:06:28;65.22;;;20.98;;
67762;SDS011;54566;52.022;5.582;2022-11-15T00:08:57;63.08;;;19.70;;
67762;SDS011;54566;52.022;5.582;2022-11-15T00:11:23;66.45;;;21.42;;
67762;SDS011;54566;52.022;5.582;2022-11-15T00:13:49;51.53;;;19.75;;
67762;SDS011;54566;52.022;5.582;2022-11-15T00:16:15;68.82;;;20.83;;
67762;SDS011;54566;52.022;5.582;2022-11-15T00:18:42;65.88;;;20.63;;
67762;SDS011;54566;52.022;5.582;2022-11-15T00:21:10;61.28;;;19.30;;
67762;SDS011;54566;52.022;5.582;2022-11-15T00:23:36;67.30;;;20.42;;
67762;SDS011;54566;52.022;5.582;2022-11-15T00:26:02;71.22;;;21.35;;
67762;SDS011;54566;52.022;5.582;2022-11-15T00:28:28;61.97;;;19.85;;
67762;SDS011;54566;52.022;5.582;2022-11-15T00:30:59;65.88;;;20.83;;
67762;SDS011;54566;52.022;5.582;2022-11-15T00:33:26;62.70;;;20.75;;
67762;SDS011;54566;52.022;5.582;2022-11-15T00:35:52;60.80;;;20.25;;
67762;SDS011;54566;52.022;5.582;2022-11-15T00:38:19;59.83;;;19.85;;
67762;SDS011;54566;52.022;5.582;2022-11-15T00:40:45;59.13;;;20.30;;
67762;SDS011;54566;52.022;5.582;2022-11-15T00:43:11;74.20;;;21.13;;
67762;SDS011;54566;52.022;5.582;2022-11-15T00:45:37;63.28;;;20.70;;
67762;SDS011;54566;52.022;5.582;2022-11-15T00:48:06;67.13;;;20.35;;
67762;SDS011;54566;52.022;5.582;2022-11-15T00:50:32;62.35;;;20.80;;
67762;SDS011;54566;52.022;5.582;2022-11-15T00:52:58;75.03;;;21.88;;
67762;SDS011;54566;52.022;5.582;2022-11-15T00:55:24;67.25;;;20.42;;
67762;SDS011;54566;52.022;5.582;2022-11-15T00:57:50;62.17;;;20.42;;
67762;SDS011;54566;52.022;5.582;2022-11-15T01:00:16;67.78;;;22.15;;
67762;SDS011;54566;52.022;5.582;2022-11-15T01:02:43;68.90;;;20.88;;
67762;SDS011;54566;52.022;5.582;2022-11-15T01:05:08;64.68;;;20.10;;
67762;SDS011;54566;52.022;5.582;2022-11-15T01:07:35;67.20;;;22.27;;
67762;SDS011;54566;52.022;5.582;2022-11-15T01:10:01;72.85;;;22.23;;
67762;SDS011;54566;52.022;5.582;2022-11-15T01:12:27;62.00;;;20.52;;
67762;SDS011;54566;52.022;5.582;2022-11-15T01:14:55;67.47;;;21.02;;
67762;SDS011;54566;52.022;5.582;2022-11-15T01:17:21;79.85;;;23.10;;
67762;SDS011;54566;52.022;5.582;2022-11-15T01:19:47;70.47;;;21.52;;
67762;SDS011;54566;52.022;5.582;2022-11-15T01:22:16;72.03;;;23.25;;
67762;SDS011;54566;52.022;5.582;2022-11-15T01:24:42;60.58;;;21.15;;
67762;SDS011;54566;52.022;5.582;2022-11-15T01:27:09;73.40;;;20.83;;
67762;SDS011;54566;52.022;5.582;2022-11-15T01:29:35;77.00;;;21.70;;
67762;SDS011;54566;52.022;5.582;2022-11-15T01:32:01;67.63;;;21.05;;
67762;SDS011;54566;52.022;5.582;2022-11-15T01:34:27;72.68;;;21.27;;
67762;SDS011;54566;52.022;5.582;2022-11-15T01:36:57;64.28;;;21.75;;
67762;SDS011;54566;52.022;5.582;2022-11-15T01:39:24;79.03;;;21.92;;
67762;SDS011;54566;52.022;5.582;2022-11-15T01:41:51;61.65;;;22.55;;
67762;SDS011;54566;52.022;5.582;2022-11-15T01:47:03;65.40;;;21.25;;
67762;SDS011;54566;52.022;5.582;2022-11-15T01:49:30;73.53;;;21.25;;
67762;SDS011;54566;52.022;5.582;2022-11-15T01:51:58;85.82;;;21.45;;
67762;SDS011;54566;52.022;5.582;2022-11-15T01:54:25;60.97;;;20.73;;
67762;SDS011;54566;52.022;5.582;2022-11-15T01:56:52;66.30;;;21.42;;
67762;SDS011;54566;52.022;5.582;2022-11-15T01:59:20;68.88;;;20.60;;
67762;SDS011;54566;52.022;5.582;2022-11-15T02:01:47;70.20;;;21.98;;
67762;SDS011;54566;52.022;5.582;2022-11-15T02:04:14;73.47;;;22.02;;
67762;SDS011;54566;52.022;5.582;2022-11-15T02:06:41;58.33;;;21.35;;
67762;SDS011;54566;52.022;5.582;2022-11-15T02:09:08;58.08;;;21.10;;
67762;SDS011;54566;52.022;5.582;2022-11-15T02:11:34;70.65;;;21.35;;
67762;SDS011;54566;52.022;5.582;2022-11-15T02:14:03;63.28;;;20.85;;
67762;SDS011;54566;52.022;5.582;2022-11-15T02:16:35;61.35;;;19.73;;
67762;SDS011;54566;52.022;5.582;2022-11-15T02:30:18;55.15;;;20.10;;
67762;SDS011;54566;52.022;5.582;2022-11-15T02:32:45;53.08;;;19.75;;
67762;SDS011;54566;52.022;5.582;2022-11-15T02:35:19;62.90;;;18.88;;
67762;SDS011;54566;52.022;5.582;2022-11-15T02:37:52;52.90;;;19.98;;
67762;SDS011;54566;52.022;5.582;2022-11-15T02:43:04;59.05;;;20.23;;
67762;SDS011;54566;52.022;5.582;2022-11-15T02:45:56;52.60;;;19.35;;
67762;SDS011;54566;52.022;5.582;2022-11-15T02:48:25;48.28;;;19.05;;
67762;SDS011;54566;52.022;5.582;2022-11-15T02:50:52;52.65;;;19.15;;
67762;SDS011;54566;52.022;5.582;2022-11-15T02:53:23;43.42;;;19.45;;
67762;SDS011;54566;52.022;5.582;2022-11-15T02:55:50;45.17;;;18.55;;
67762;SDS011;54566;52.022;5.582;2022-11-15T03:01:12;37.95;;;17.88;;
67762;SDS011;54566;52.022;5.582;2022-11-15T03:03:48;38.05;;;17.95;;
67762;SDS011;54566;52.022;5.582;2022-11-15T03:08:55;45.88;;;19.00;;
67762;SDS011;54566;52.022;5.582;2022-11-15T03:11:22;48.85;;;19.75;;
67762;SDS011;54566;52.022;5.582;2022-11-15T03:16:29;45.38;;;18.85;;
67762;SDS011;54566;52.022;5.582;2022-11-15T03:19:09;32.67;;;17.63;;
67762;SDS011;54566;52.022;5.582;2022-11-15T03:21:39;37.35;;;17.90;;
67762;SDS011;54566;52.022;5.582;2022-11-15T03:24:06;36.50;;;18.17;;
67762;SDS011;54566;52.022;5.582;2022-11-15T03:26:33;39.90;;;18.50;;
67762;SDS011;54566;52.022;5.582;2022-11-15T03:29:06;35.30;;;17.63;;
67762;SDS011;54566;52.022;5.582;2022-11-15T03:31:34;35.40;;;17.27;;
67762;SDS011;54566;52.022;5.582;2022-11-15T03:34:27;34.47;;;17.23;;
67762;SDS011;54566;52.022;5.582;2022-11-15T03:36:55;34.70;;;17.75;;
67762;SDS011;54566;52.022;5.582;2022-11-15T03:39:21;45.03;;;18.35;;
67762;SDS011;54566;52.022;5.582;2022-11-15T03:42:04;41.13;;;18.80;;
67762;SDS011;54566;52.022;5.582;2022-11-15T03:49:36;42.90;;;18.95;;
67762;SDS011;54566;52.022;5.582;2022-11-15T03:52:04;46.45;;;19.20;;
67762;SDS011;54566;52.022;5.582;2022-11-15T03:54:32;42.30;;;19.30;;
67762;SDS011;54566;52.022;5.582;2022-11-15T03:56:58;43.90;;;19.85;;
67762;SDS011;54566;52.022;5.582;2022-11-15T03:59:24;37.10;;;19.27;;
67762;SDS011;54566;52.022;5.582;2022-11-15T04:01:50;46.88;;;19.85;;
67762;SDS011;54566;52.022;5.582;2022-11-15T04:04:19;40.28;;;20.02;;
67762;SDS011;54566;52.022;5.582;2022-11-15T04:06:45;42.42;;;19.60;;
67762;SDS011;54566;52.022;5.582;2022-11-15T04:09:11;39.63;;;19.95;;
67762;SDS011;54566;52.022;5.582;2022-11-15T04:11:37;48.42;;;19.38;;
67762;SDS011;54566;52.022;5.582;2022-11-15T04:14:06;42.35;;;20.17;;
67762;SDS011;54566;52.022;5.582;2022-11-15T04:16:32;52.70;;;21.05;;
67762;SDS011;54566;52.022;5.582;2022-11-15T04:19:01;44.53;;;19.92;;
67762;SDS011;54566;52.022;5.582;2022-11-15T04:21:45;44.90;;;20.65;;
67762;SDS011;54566;52.022;5.582;2022-11-15T04:24:30;46.63;;;20.40;;
67762;SDS011;54566;52.022;5.582;2022-11-15T04:26:56;46.22;;;19.90;;
67762;SDS011;54566;52.022;5.582;2022-11-15T04:29:22;44.38;;;19.92;;
67762;SDS011;54566;52.022;5.582;2022-11-15T04:32:02;34.95;;;18.83;;
67762;SDS011;54566;52.022;5.582;2022-11-15T04:34:29;49.97;;;18.88;;
67762;SDS011;54566;52.022;5.582;2022-11-15T04:36:56;40.88;;;19.23;;
67762;SDS011;54566;52.022;5.582;2022-11-15T04:39:45;39.95;;;19.13;;
67762;SDS011;54566;52.022;5.582;2022-11-15T04:42:12;47.83;;;20.13;;
67762;SDS011;54566;52.022;5.582;2022-11-15T04:44:39;42.67;;;19.92;;
67762;SDS011;54566;52.022;5.582;2022-11-15T04:47:05;37.15;;;18.23;;
67762;SDS011;54566;52.022;5.582;2022-11-15T04:49:31;35.97;;;18.95;;
67762;SDS011;54566;52.022;5.582;2022-11-15T04:51:57;43.03;;;20.08;;
67762;SDS011;54566;52.022;5.582;2022-11-15T04:54:25;35.78;;;17.88;;
67762;SDS011;54566;52.022;5.582;2022-11-15T04:56:55;45.38;;;19.65;;
67762;SDS011;54566;52.022;5.582;2022-11-15T04:59:22;40.05;;;19.85;;
67762;SDS011;54566;52.022;5.582;2022-11-15T05:01:51;41.13;;;19.02;;
67762;SDS011;54566;52.022;5.582;2022-11-15T05:04:17;36.92;;;18.95;;
67762;SDS011;54566;52.022;5.582;2022-11-15T05:06:47;30.15;;;18.00;;
67762;SDS011;54566;52.022;5.582;2022-11-15T05:09:13;40.17;;;19.17;;
67762;SDS011;54566;52.022;5.582;2022-11-15T05:11:42;41.92;;;19.35;;
67762;SDS011;54566;52.022;5.582;2022-11-15T05:14:08;32.42;;;18.85;;
67762;SDS011;54566;52.022;5.582;2022-11-15T05:16:34;41.95;;;19.25;;
67762;SDS011;54566;52.022;5.582;2022-11-15T05:19:00;42.15;;;17.75;;
67762;SDS011;54566;52.022;5.582;2022-11-15T05:21:27;38.15;;;18.90;;
67762;SDS011;54566;52.022;5.582;2022-11-15T05:23:53;33.28;;;17.42;;
67762;SDS011;54566;52.022;5.582;2022-11-15T05:26:19;34.97;;;18.13;;
67762;SDS011;54566;52.022;5.582;2022-11-15T05:28:51;35.47;;;18.65;;
67762;SDS011;54566;52.022;5.582;2022-11-15T05:31:18;40.38;;;18.05;;
67762;SDS011;54566;52.022;5.582;2022-11-15T05:33:45;44.38;;;18.23;;
67762;SDS011;54566;52.022;5.582;2022-11-15T05:36:13;33.63;;;18.15;;
67762;SDS011;54566;52.022;5.582;2022-11-15T05:38:42;36.72;;;18.30;;
67762;SDS011;54566;52.022;5.582;2022-11-15T05:41:14;33.08;;;17.75;;
67762;SDS011;54566;52.022;5.582;2022-11-15T05:50:06;33.55;;;18.70;;
67762;SDS011;54566;52.022;5.582;2022-11-15T05:52:33;42.15;;;19.27;;
67762;SDS011;54566;52.022;5.582;2022-11-15T05:55:00;42.75;;;19.33;;
67762;SDS011;54566;52.022;5.582;2022-11-15T05:57:28;43.80;;;20.70;;
67762;SDS011;54566;52.022;5.582;2022-11-15T05:59:55;41.40;;;19.83;;
67762;SDS011;54566;52.022;5.582;2022-11-15T06:02:21;43.20;;;19.63;;
67762;SDS011;54566;52.022;5.582;2022-11-15T06:04:47;41.28;;;19.30;;
67762;SDS011;54566;52.022;5.582;2022-11-15T06:07:14;42.13;;;19.80;;
67762;SDS011;54566;52.022;5.582;2022-11-15T06:09:40;39.55;;;20.00;;
67762;SDS011;54566;52.022;5.582;2022-11-15T06:12:09;40.70;;;19.73;;
67762;SDS011;54566;52.022;5.582;2022-11-15T06:14:35;39.83;;;19.35;;
67762;SDS011;54566;52.022;5.582;2022-11-15T06:19:50;46.10;;;19.33;;
67762;SDS011;54566;52.022;5.582;2022-11-15T06:22:19;42.10;;;18.88;;
67762;SDS011;54566;52.022;5.582;2022-11-15T06:27:52;38.90;;;18.45;;
67762;SDS011;54566;52.022;5.582;2022-11-15T06:32:21;43.83;;;24.70;;
67762;SDS011;54566;52.022;5.582;2022-11-15T06:37:14;36.25;;;18.85;;
67762;SDS011;54566;52.022;5.582;2022-11-15T06:40:01;34.20;;;18.02;;
67762;SDS011;54566;52.022;5.582;2022-11-15T06:42:26;34.20;;;19.15;;
67762;SDS011;54566;52.022;5.582;2022-11-15T06:45:04;35.97;;;18.85;;
67762;SDS011;54566;52.022;5.582;2022-11-15T06:47:49;42.03;;;19.08;;
67762;SDS011;54566;52.022;5.582;2022-11-15T06:50:18;42.55;;;19.83;;
67762;SDS011;54566;52.022;5.582;2022-11-15T06:52:51;40.05;;;18.95;;
67762;SDS011;54566;52.022;5.582;2022-11-15T06:55:23;35.80;;;20.60;;
67762;SDS011;54566;52.022;5.582;2022-11-15T06:57:50;35.58;;;19.77;;
67762;SDS011;54566;52.022;5.582;2022-11-15T07:00:17;37.70;;;18.95;;
67762;SDS011;54566;52.022;5.582;2022-11-15T07:02:43;34.67;;;18.50;;
67762;SDS011;54566;52.022;5.582;2022-11-15T07:05:16;35.05;;;18.30;;
67762;SDS011;54566;52.022;5.582;2022-11-15T07:07:55;39.90;;;17.60;;
67762;SDS011;54566;52.022;5.582;2022-11-15T07:10:23;29.70;;;17.13;;
67762;SDS011;54566;52.022;5.582;2022-11-15T07:12:52;37.53;;;18.35;;
67762;SDS011;54566;52.022;5.582;2022-11-15T07:15:22;39.05;;;17.20;;
67762;SDS011;54566;52.022;5.582;2022-11-15T07:17:48;35.35;;;18.42;;
67762;SDS011;54566;52.022;5.582;2022-11-15T07:20:17;32.30;;;17.77;;
67762;SDS011;54566;52.022;5.582;2022-11-15T07:22:44;35.22;;;17.73;;
67762;SDS011;54566;52.022;5.582;2022-11-15T07:25:10;35.70;;;17.75;;
67762;SDS011;54566;52.022;5.582;2022-11-15T07:27:36;33.42;;;17.05;;
67762;SDS011;54566;52.022;5.582;2022-11-15T07:30:03;35.03;;;18.58;;
67762;SDS011;54566;52.022;5.582;2022-11-15T07:32:29;36.97;;;17.45;;
67762;SDS011;54566;52.022;5.582;2022-11-15T07:37:26;36.08;;;17.35;;
67762;SDS011;54566;52.022;5.582;2022-11-15T07:39:55;33.08;;;16.75;;
67762;SDS011;54566;52.022;5.582;2022-11-15T07:42:21;31.00;;;17.23;;
67762;SDS011;54566;52.022;5.582;2022-11-15T07:45:05;30.98;;;17.45;;
67762;SDS011;54566;52.022;5.582;2022-11-15T07:47:39;28.13;;;16.63;;
67762;SDS011;54566;52.022;5.582;2022-11-15T07:50:12;32.22;;;17.30;;
67762;SDS011;54566;52.022;5.582;2022-11-15T07:52:38;31.65;;;16.67;;
67762;SDS011;54566;52.022;5.582;2022-11-15T07:55:04;37.85;;;16.40;;
67762;SDS011;54566;52.022;5.582;2022-11-15T08:21:52;27.13;;;14.55;;
67762;SDS011;54566;52.022;5.582;2022-11-15T08:24:18;28.83;;;14.88;;
67762;SDS011;54566;52.022;5.582;2022-11-15T08:26:45;31.23;;;14.65;;
67762;SDS011;54566;52.022;5.582;2022-11-15T08:32:11;30.67;;;14.00;;
67762;SDS011;54566;52.022;5.582;2022-11-15T08:34:37;28.08;;;13.90;;
67762;SDS011;54566;52.022;5.582;2022-11-15T08:37:05;26.50;;;13.60;;
67762;SDS011;54566;52.022;5.582;2022-11-15T08:39:31;25.60;;;13.57;;
67762;SDS011;54566;52.022;5.582;2022-11-15T08:41:58;24.45;;;12.40;;
67762;SDS011;54566;52.022;5.582;2022-11-15T08:44:27;24.80;;;12.45;;
67762;SDS011;54566;52.022;5.582;2022-11-15T08:46:53;27.52;;;12.07;;
67762;SDS011;54566;52.022;5.582;2022-11-15T08:49:20;22.13;;;12.80;;
67762;SDS011;54566;52.022;5.582;2022-11-15T08:51:52;22.95;;;12.65;;
67762;SDS011;54566;52.022;5.582;2022-11-15T08:54:18;23.83;;;11.98;;
67762;SDS011;54566;52.022;5.582;2022-11-15T08:56:44;23.75;;;11.80;;
67762;SDS011;54566;52.022;5.582;2022-11-15T08:59:12;27.08;;;11.23;;
67762;SDS011;54566;52.022;5.582;2022-11-15T09:01:44;28.00;;;11.95;;
67762;SDS011;54566;52.022;5.582;2022-11-15T09:10:32;19.40;;;11.25;;
67762;SDS011;54566;52.022;5.582;2022-11-15T09:12:58;21.65;;;11.27;;
67762;SDS011;54566;52.022;5.582;2022-11-15T09:15:24;24.25;;;11.20;;
67762;SDS011;54566;52.022;5.582;2022-11-15T09:17:50;23.63;;;12.02;;
67762;SDS011;54566;52.022;5.582;2022-11-15T09:20:26;21.83;;;12.20;;
67762;SDS011;54566;52.022;5.582;2022-11-15T09:22:58;23.45;;;11.80;;
67762;SDS011;54566;52.022;5.582;2022-11-15T09:25:27;17.25;;;11.10;;
67762;SDS011;54566;52.022;5.582;2022-11-15T09:28:05;21.38;;;12.00;;
67762;SDS011;54566;52.022;5.582;2022-11-15T09:30:31;19.25;;;11.73;;
67762;SDS011;54566;52.022;5.582;2022-11-15T09:33:07;23.90;;;12.13;;
67762;SDS011;54566;52.022;5.582;2022-11-15T09:35:33;22.15;;;11.88;;
67762;SDS011;54566;52.022;5.582;2022-11-15T09:38:02;25.85;;;12.63;;
67762;SDS011;54566;52.022;5.582;2022-11-15T09:40:31;20.60;;;11.35;;
67762;SDS011;54566;52.022;5.582;2022-11-15T09:51:14;16.90;;;9.05;;
67762;SDS011;54566;52.022;5.582;2022-11-15T09:53:47;17.17;;;7.80;;
67762;SDS011;54566;52.022;5.582;2022-11-15T09:56:16;11.77;;;7.38;;
67762;SDS011;54566;52.022;5.582;2022-11-15T10:01:34;13.90;;;6.90;;
67762;SDS011;54566;52.022;5.582;2022-11-15T10:04:02;16.10;;;6.55;;
67762;SDS011;54566;52.022;5.582;2022-11-15T10:06:28;14.45;;;6.45;;
67762;SDS011;54566;52.022;5.582;2022-11-15T10:09:04;11.25;;;5.30;;
67762;SDS011;54566;52.022;5.582;2022-11-15T10:11:33;14.70;;;5.30;;
67762;SDS011;54566;52.022;5.582;2022-11-15T10:14:22;10.75;;;5.00;;
67762;SDS011;54566;52.022;5.582;2022-11-15T10:22:04;6.30;;;3.97;;
67762;SDS011;54566;52.022;5.582;2022-11-15T10:24:38;9.77;;;3.72;;
67762;SDS011;54566;52.022;5.582;2022-11-15T10:27:16;4.68;;;3.50;;
67762;SDS011;54566;52.022;5.582;2022-11-15T10:29:46;5.88;;;3.08;;
67762;SDS011;54566;52.022;5.582;2022-11-15T10:32:28;5.90;;;3.60;;
67762;SDS011;54566;52.022;5.582;2022-11-15T10:37:45;7.07;;;3.47;;
67762;SDS011;54566;52.022;5.582;2022-11-15T10:40:15;5.68;;;3.20;;
67762;SDS011;54566;52.022;5.582;2022-11-15T10:42:44;4.10;;;3.10;;
67762;SDS011;54566;52.022;5.582;2022-11-15T10:50:38;5.78;;;3.10;;
67762;SDS011;54566;52.022;5.582;2022-11-15T10:53:10;8.98;;;3.03;;
67762;SDS011;54566;52.022;5.582;2022-11-15T10:55:39;6.90;;;2.88;;
67762;SDS011;54566;52.022;5.582;2022-11-15T10:58:18;5.78;;;2.60;;
67762;SDS011;54566;52.022;5.582;2022-11-15T11:00:47;7.80;;;2.53;;
67762;SDS011;54566;52.022;5.582;2022-11-15T11:03:26;6.47;;;2.65;;
67762;SDS011;54566;52.022;5.582;2022-11-15T11:12:01;5.53;;;2.28;;
67762;SDS011;54566;52.022;5.582;2022-11-15T11:14:35;9.02;;;2.53;;
67762;SDS011;54566;52.022;5.582;2022-11-15T11:32:05;5.72;;;1.92;;
67762;SDS011;54566;52.022;5.582;2022-11-15T11:37:24;6.32;;;2.03;;
67762;SDS011;54566;52.022;5.582;2022-11-15T11:42:30;3.33;;;1.80;;
67762;SDS011;54566;52.022;5.582;2022-11-15T11:50:32;12.68;;;2.25;;
67762;SDS011;54566;52.022;5.582;2022-11-15T11:53:06;8.75;;;2.08;;
67762;SDS011;54566;52.022;5.582;2022-11-15T11:55:37;3.88;;;1.35;;
67762;SDS011;54566;52.022;5.582;2022-11-15T12:00:31;7.07;;;1.60;;
67762;SDS011;54566;52.022;5.582;2022-11-15T12:05:32;7.45;;;1.60;;
67762;SDS011;54566;52.022;5.582;2022-11-15T12:08:04;4.28;;;1.55;;
67762;SDS011;54566;52.022;5.582;2022-11-15T12:10:35;7.80;;;1.65;;
67762;SDS011;54566;52.022;5.582;2022-11-15T12:15:36;4.38;;;1.48;;
67762;SDS011;54566;52.022;5.582;2022-11-15T12:18:07;6.97;;;1.33;;
67762;SDS011;54566;52.022;5.582;2022-11-15T12:23:23;6.50;;;1.60;;
67762;SDS011;54566;52.022;5.582;2022-11-15T12:29:03;5.95;;;1.88;;
67762;SDS011;54566;52.022;5.582;2022-11-15T12:31:35;4.30;;;1.42;;
67762;SDS011;54566;52.022;5.582;2022-11-15T12:34:04;4.97;;;1.50;;
67762;SDS011;54566;52.022;5.582;2022-11-15T12:36:39;6.72;;;1.70;;
67762;SDS011;54566;52.022;5.582;2022-11-15T12:39:10;6.72;;;1.63;;
67762;SDS011;54566;52.022;5.582;2022-11-15T12:52:05;9.30;;;1.70;;
67762;SDS011;54566;52.022;5.582;2022-11-15T13:02:18;4.63;;;1.90;;
67762;SDS011;54566;52.022;5.582;2022-11-15T13:04:44;5.07;;;1.45;;
67762;SDS011;54566;52.022;5.582;2022-11-15T13:17:52;11.30;;;1.73;;
67762;SDS011;54566;52.022;5.582;2022-11-15T13:20:21;9.07;;;1.70;;
67762;SDS011;54566;52.022;5.582;2022-11-15T13:33:34;6.05;;;1.15;;
67762;SDS011;54566;52.022;5.582;2022-11-15T13:36:06;6.05;;;1.63;;
67762;SDS011;54566;52.022;5.582;2022-11-15T13:38:34;4.50;;;1.20;;
67762;SDS011;54566;52.022;5.582;2022-11-15T13:41:10;2.17;;;1.13;;
67762;SDS011;54566;52.022;5.582;2022-11-15T13:49:22;7.20;;;1.30;;
67762;SDS011;54566;52.022;5.582;2022-11-15T13:51:54;4.95;;;1.50;;
67762;SDS011;54566;52.022;5.582;2022-11-15T13:54:23;8.52;;;1.58;;
67762;SDS011;54566;52.022;5.582;2022-11-15T13:57:02;4.05;;;1.27;;
67762;SDS011;54566;52.022;5.582;2022-11-15T13:59:30;6.50;;;1.52;;
67762;SDS011;54566;52.022;5.582;2022-11-15T14:01:57;2.95;;;1.20;;
67762;SDS011;54566;52.022;5.582;2022-11-15T14:04:25;6.15;;;1.58;;
67762;SDS011;54566;52.022;5.582;2022-11-15T14:06:57;3.67;;;1.33;;
67762;SDS011;54566;52.022;5.582;2022-11-15T14:09:29;6.53;;;1.42;;
67762;SDS011;54566;52.022;5.582;2022-11-15T14:14:52;12.95;;;2.03;;
67762;SDS011;54566;52.022;5.582;2022-11-15T14:17:37;4.45;;;1.20;;
67762;SDS011;54566;52.022;5.582;2022-11-15T14:23:04;8.15;;;1.40;;
67762;SDS011;54566;52.022;5.582;2022-11-15T14:28:10;5.35;;;1.33;;
67762;SDS011;54566;52.022;5.582;2022-11-15T14:30:43;8.90;;;1.60;;
67762;SDS011;54566;52.022;5.582;2022-11-15T14:36:04;2.92;;;1.20;;
67762;SDS011;54566;52.022;5.582;2022-11-15T14:48:32;5.00;;;1.33;;
67762;SDS011;54566;52.022;5.582;2022-11-15T14:58:08;7.75;;;1.42;;
67762;SDS011;54566;52.022;5.582;2022-11-15T15:00:35;6.57;;;1.10;;
67762;SDS011;54566;52.022;5.582;2022-11-15T15:03:01;7.90;;;1.30;;
67762;SDS011;54566;52.022;5.582;2022-11-15T15:05:42;3.10;;;1.10;;
67762;SDS011;54566;52.022;5.582;2022-11-15T15:08:09;6.55;;;1.10;;
67762;SDS011;54566;52.022;5.582;2022-11-15T15:10:50;4.70;;;1.23;;
67762;SDS011;54566;52.022;5.582;2022-11-15T15:19:42;2.97;;;1.05;;
67762;SDS011;54566;52.022;5.582;2022-11-15T15:22:12;9.68;;;1.45;;
67762;SDS011;54566;52.022;5.582;2022-11-15T15:24:39;5.65;;;1.35;;
67762;SDS011;54566;52.022;5.582;2022-11-15T15:29:57;16.13;;;1.55;;
67762;SDS011;54566;52.022;5.582;2022-11-15T15:32:30;6.10;;;1.67;;
67762;SDS011;54566;52.022;5.582;2022-11-15T15:34:56;4.28;;;1.33;;
67762;SDS011;54566;52.022;5.582;2022-11-15T15:37:41;4.38;;;1.38;;
67762;SDS011;54566;52.022;5.582;2022-11-15T15:40:10;3.22;;;1.17;;
67762;SDS011;54566;52.022;5.582;2022-11-15T15:42:37;3.90;;;1.23;;
67762;SDS011;54566;52.022;5.582;2022-11-15T15:45:03;4.63;;;1.50;;
67762;SDS011;54566;52.022;5.582;2022-11-15T15:47:30;5.45;;;1.52;;
67762;SDS011;54566;52.022;5.582;2022-11-15T15:49:58;5.38;;;1.38;;
67762;SDS011;54566;52.022;5.582;2022-11-15T15:52:24;6.03;;;1.55;;
67762;SDS011;54566;52.022;5.582;2022-11-15T15:54:50;8.73;;;1.88;;
67762;SDS011;54566;52.022;5.582;2022-11-15T15:57:27;10.48;;;1.38;;
67762;SDS011;54566;52.022;5.582;2022-11-15T15:59:53;10.23;;;1.35;;
67762;SDS011;54566;52.022;5.582;2022-11-15T16:02:20;2.17;;;1.10;;
67762;SDS011;54566;52.022;5.582;2022-11-15T16:04:46;7.38;;;1.30;;
67762;SDS011;54566;52.022;5.582;2022-11-15T16:07:15;8.93;;;1.30;;
67762;SDS011;54566;52.022;5.582;2022-11-15T16:09:42;6.97;;;1.30;;
67762;SDS011;54566;52.022;5.582;2022-11-15T16:12:29;9.90;;;1.40;;
67762;SDS011;54566;52.022;5.582;2022-11-15T16:14:55;5.43;;;1.77;;
67762;SDS011;54566;52.022;5.582;2022-11-15T16:17:23;8.00;;;1.40;;
67762;SDS011;54566;52.022;5.582;2022-11-15T16:19:50;4.20;;;1.27;;
67762;SDS011;54566;52.022;5.582;2022-11-15T16:22:16;8.13;;;1.55;;
67762;SDS011;54566;52.022;5.582;2022-11-15T16:24:42;6.15;;;1.42;;
67762;SDS011;54566;52.022;5.582;2022-11-15T16:27:15;4.97;;;1.50;;
67762;SDS011;54566;52.022;5.582;2022-11-15T16:29:41;4.68;;;1.52;;
67762;SDS011;54566;52.022;5.582;2022-11-15T16:32:10;8.63;;;1.45;;
67762;SDS011;54566;52.022;5.582;2022-11-15T16:34:50;4.78;;;1.50;;
67762;SDS011;54566;52.022;5.582;2022-11-15T16:37:21;10.68;;;2.67;;
67762;SDS011;54566;52.022;5.582;2022-11-15T16:39:49;2.90;;;1.30;;
67762;SDS011;54566;52.022;5.582;2022-11-15T16:42:23;10.95;;;1.80;;
67762;SDS011;54566;52.022;5.582;2022-11-15T16:44:58;5.75;;;1.60;;
67762;SDS011;54566;52.022;5.582;2022-11-15T16:47:24;7.78;;;1.60;;
67762;SDS011;54566;52.022;5.582;2022-11-15T16:52:55;4.03;;;1.75;;
67762;SDS011;54566;52.022;5.582;2022-11-15T16:55:25;7.20;;;1.80;;
67762;SDS011;54566;52.022;5.582;2022-11-15T16:57:54;11.07;;;1.85;;
67762;SDS011;54566;52.022;5.582;2022-11-15T17:00:22;5.25;;;2.05;;
67762;SDS011;54566;52.022;5.582;2022-11-15T17:02:50;4.45;;;1.77;;
67762;SDS011;54566;52.022;5.582;2022-11-15T17:05:17;4.03;;;1.98;;
67762;SDS011;54566;52.022;5.582;2022-11-15T17:07:47;7.93;;;2.00;;
67762;SDS011;54566;52.022;5.582;2022-11-15T17:10:14;8.43;;;2.00;;
67762;SDS011;54566;52.022;5.582;2022-11-15T17:12:40;7.93;;;2.05;;
67762;SDS011;54566;52.022;5.582;2022-11-15T17:15:22;2.85;;;2.08;;
67762;SDS011;54566;52.022;5.582;2022-11-15T17:39:19;5.55;;;2.30;;
67762;SDS011;54566;52.022;5.582;2022-11-15T17:47:23;6.97;;;2.47;;
67762;SDS011;54566;52.022;5.582;2022-11-15T17:52:24;8.38;;;2.58;;
67762;SDS011;54566;52.022;5.582;2022-11-15T17:57:52;6.78;;;2.47;;
67762;SDS011;54566;52.022;5.582;2022-11-15T18:00:18;6.55;;;2.28;;
67762;SDS011;54566;52.022;5.582;2022-11-15T18:02:45;4.70;;;2.63;;
67762;SDS011;54566;52.022;5.582;2022-11-15T18:05:11;7.28;;;2.65;;
67762;SDS011;54566;52.022;5.582;2022-11-15T18:07:37;6.45;;;3.00;;
67762;SDS011;54566;52.022;5.582;2022-11-15T18:13:14;5.30;;;2.80;;
67762;SDS011;54566;52.022;5.582;2022-11-15T18:16:01;8.32;;;3.22;;
67762;SDS011;54566;52.022;5.582;2022-11-15T18:18:28;5.88;;;3.13;;
67762;SDS011;54566;52.022;5.582;2022-11-15T18:21:14;11.25;;;3.47;;
67762;SDS011;54566;52.022;5.582;2022-11-15T18:30:18;8.68;;;3.88;;
67762;SDS011;54566;52.022;5.582;2022-11-15T20:28:05;12.02;;;5.80;;
67762;SDS011;54566;52.022;5.582;2022-11-15T20:30:32;8.77;;;5.97;;
67762;SDS011;54566;52.022;5.582;2022-11-15T20:32:58;9.45;;;6.05;;
67762;SDS011;54566;52.022;5.582;2022-11-15T20:35:24;9.68;;;6.07;;
67762;SDS011;54566;52.022;5.582;2022-11-15T20:37:50;11.82;;;6.47;;
67762;SDS011;54566;52.022;5.582;2022-11-15T20:40:16;10.70;;;6.18;;
67762;SDS011;54566;52.022;5.582;2022-11-15T20:42:42;13.20;;;6.80;;
67762;SDS011;54566;52.022;5.582;2022-11-15T20:45:08;11.43;;;6.93;;
67762;SDS011;54566;52.022;5.582;2022-11-15T20:47:34;11.57;;;6.90;;
67762;SDS011;54566;52.022;5.582;2022-11-15T20:50:00;11.77;;;7.18;;
67762;SDS011;54566;52.022;5.582;2022-11-15T20:52:26;16.38;;;6.57;;
67762;SDS011;54566;52.022;5.582;2022-11-15T20:54:52;13.35;;;7.15;;
67762;SDS011;54566;52.022;5.582;2022-11-15T20:57:18;11.05;;;7.35;;
67762;SDS011;54566;52.022;5.582;2022-11-15T20:59:44;13.48;;;7.32;;
67762;SDS011;54566;52.022;5.582;2022-11-15T21:02:13;15.50;;;7.85;;
67762;SDS011;54566;52.022;5.582;2022-11-15T21:04:39;9.23;;;7.18;;
67762;SDS011;54566;52.022;5.582;2022-11-15T21:07:06;13.18;;;7.57;;
67762;SDS011;54566;52.022;5.582;2022-11-15T21:09:32;9.10;;;6.80;;
67762;SDS011;54566;52.022;5.582;2022-11-15T21:12:17;10.60;;;7.00;;
67762;SDS011;54566;52.022;5.582;2022-11-15T21:14:43;11.20;;;6.72;;
67762;SDS011;54566;52.022;5.582;2022-11-15T21:17:12;9.85;;;6.95;;
67762;SDS011;54566;52.022;5.582;2022-11-15T21:19:37;10.65;;;6.93;;